createdAt,value
2023-03-13T00:01:42.897Z,18.77
2023-03-13T00:04:45.850Z,12.13
2023-03-13T00:07:48.640Z,10.95
2023-03-13T00:10:52.182Z,11.63
2023-03-13T00:17:03.270Z,10.75
2023-03-13T00:20:07.419Z,12.50
2023-03-13T00:23:10.226Z,11.30
2023-03-13T00:26:18.393Z,12.75
2023-03-13T00:29:21.267Z,14.43
2023-03-13T00:32:24.118Z,12.93
2023-03-13T00:35:27.167Z,12.37
2023-03-13T00:38:31.921Z,11.82
2023-03-13T00:41:36.556Z,11.07
2023-03-13T00:44:40.906Z,11.95
2023-03-13T00:47:43.747Z,12.57
2023-03-13T00:50:46.528Z,10.18
2023-03-13T00:56:52.712Z,15.18
2023-03-13T00:59:55.593Z,9.70
2023-03-13T01:02:58.506Z,10.52
2023-03-13T01:06:03.699Z,8.43
2023-03-13T01:09:08.364Z,9.15
2023-03-13T01:12:12.167Z,10.85
2023-03-13T01:15:14.957Z,12.50
2023-03-13T01:18:19.331Z,12.13
2023-03-13T01:21:23.903Z,11.85
2023-03-13T01:24:26.900Z,13.98
2023-03-13T01:27:29.994Z,9.55
2023-03-13T01:30:32.996Z,16.52
2023-03-13T01:33:35.783Z,9.70
2023-03-13T01:36:38.842Z,11.70
2023-03-13T01:39:41.923Z,13.20
2023-03-13T01:42:51.009Z,11.82
2023-03-13T01:46:07.523Z,9.25
2023-03-13T01:49:15.566Z,15.00
2023-03-13T01:52:31.213Z,11.30
2023-03-13T01:55:35.473Z,10.77
2023-03-13T02:01:45.517Z,13.32
2023-03-13T02:04:55.437Z,13.05
2023-03-13T02:08:11.029Z,15.65
2023-03-13T02:11:18.298Z,10.77
2023-03-13T02:14:23.528Z,9.05
2023-03-13T02:17:27.026Z,10.88
2023-03-13T02:20:29.832Z,10.63
2023-03-13T02:23:40.358Z,11.10
2023-03-13T02:26:43.386Z,9.90
2023-03-13T02:29:46.649Z,10.40
2023-03-13T02:35:54.644Z,8.98
2023-03-13T02:39:02.783Z,13.38
2023-03-13T02:42:06.590Z,9.93
2023-03-13T02:45:14.676Z,10.35
2023-03-13T02:48:17.706Z,13.15
2023-03-13T02:51:36.450Z,10.70
2023-03-13T02:54:41.236Z,10.27
2023-03-13T02:57:44.937Z,9.98
2023-03-13T03:00:47.911Z,11.85
2023-03-13T03:03:52.895Z,10.55
2023-03-13T03:06:55.769Z,9.52
2023-03-13T03:09:59.586Z,10.02
2023-03-13T03:13:02.501Z,10.15
2023-03-13T03:16:11.397Z,10.77
2023-03-13T03:19:14.551Z,11.93
2023-03-13T03:22:17.379Z,12.43
2023-03-13T03:25:20.290Z,11.60
2023-03-13T03:28:23.253Z,9.15
2023-03-13T03:31:26.290Z,10.75
2023-03-13T03:34:31.021Z,11.05
2023-03-13T03:37:34.771Z,10.35
2023-03-13T03:40:38.117Z,11.77
2023-03-13T03:43:41.262Z,9.20
2023-03-13T03:49:47.793Z,11.52
2023-03-13T03:52:51.420Z,9.18
2023-03-13T03:55:55.530Z,12.68
2023-03-13T04:02:02.029Z,10.30
2023-03-13T04:05:05.487Z,8.77
2023-03-13T04:08:10.202Z,11.25
2023-03-13T04:11:13.329Z,12.23
2023-03-13T04:14:16.997Z,12.73
2023-03-13T04:20:23.306Z,10.05
2023-03-13T04:23:26.234Z,12.32
2023-03-13T04:26:29.145Z,10.57
2023-03-13T04:29:33.700Z,10.32
2023-03-13T04:32:37.256Z,11.18
2023-03-13T04:35:40.484Z,9.63
2023-03-13T04:38:46.111Z,11.07
2023-03-13T04:41:49.154Z,13.43
2023-03-13T04:44:52.261Z,12.98
2023-03-13T04:47:56.129Z,12.43
2023-03-13T04:51:00.554Z,11.45
2023-03-13T04:54:03.654Z,12.60
2023-03-13T04:57:07.069Z,12.82
2023-03-13T05:00:11.608Z,12.75
2023-03-13T05:03:14.705Z,13.85
2023-03-13T05:06:20.056Z,11.90
2023-03-13T05:09:24.207Z,12.32
2023-03-13T05:12:27.409Z,16.83
2023-03-13T05:15:30.713Z,12.45
2023-03-13T05:18:34.590Z,14.27
2023-03-13T05:24:41.917Z,14.45
2023-03-13T05:27:45.902Z,10.40
2023-03-13T05:30:48.980Z,12.52
2023-03-13T05:33:52.285Z,13.25
2023-03-13T05:36:55.482Z,13.13
2023-03-13T05:40:00.369Z,15.98
2023-03-13T05:43:03.753Z,12.98
2023-03-13T05:46:06.798Z,12.37
2023-03-13T05:49:09.982Z,14.23
2023-03-13T05:52:13.003Z,13.50
2023-03-13T05:55:16.571Z,13.65
2023-03-13T05:58:19.563Z,14.23
2023-03-13T06:01:22.953Z,14.55
2023-03-13T06:07:29.356Z,19.45
2023-03-13T06:10:32.584Z,13.45
2023-03-13T06:13:36.252Z,15.05
2023-03-13T06:16:40.171Z,14.68
2023-03-13T06:19:43.498Z,14.63
2023-03-13T06:22:46.596Z,15.02
2023-03-13T06:25:49.195Z,13.45
2023-03-13T06:28:52.702Z,17.05
2023-03-13T06:31:55.939Z,18.23
2023-03-13T06:38:01.781Z,14.15
2023-03-13T06:41:05.163Z,13.23
2023-03-13T06:44:07.853Z,17.90
2023-03-13T06:47:12.444Z,18.77
2023-03-13T06:50:16.378Z,17.50
2023-03-13T06:53:20.810Z,15.23
2023-03-13T06:56:23.892Z,13.88
2023-03-13T06:59:27.301Z,15.85
2023-03-13T07:02:31.249Z,12.32
2023-03-13T07:05:34.527Z,12.52
2023-03-13T07:08:37.316Z,16.30
2023-03-13T07:11:40.414Z,10.95
2023-03-13T07:14:42.973Z,13.52
2023-03-13T07:17:46.096Z,14.82
2023-03-13T07:20:56.197Z,12.17
2023-03-13T07:23:59.383Z,11.30
2023-03-13T07:27:07.596Z,13.37
2023-03-13T07:30:11.779Z,9.88
2023-03-13T07:33:14.285Z,14.10
2023-03-13T07:36:17.571Z,10.75
2023-03-13T07:39:20.182Z,14.30
2023-03-13T07:42:23.276Z,10.40
2023-03-13T07:45:27.970Z,12.45
2023-03-13T07:48:33.365Z,13.27
2023-03-13T07:51:43.628Z,11.27
2023-03-13T07:54:47.553Z,11.88
2023-03-13T07:57:50.062Z,12.03
2023-03-13T08:00:53.558Z,10.98
2023-03-13T08:03:56.555Z,16.00
2023-03-13T08:06:59.983Z,12.13
2023-03-13T08:10:02.846Z,10.05
2023-03-13T08:13:05.724Z,10.45
2023-03-13T08:19:12.956Z,8.35
2023-03-13T08:22:15.780Z,9.30
2023-03-13T08:25:18.623Z,7.55
2023-03-13T08:28:21.381Z,8.13
2023-03-13T08:31:27.164Z,11.00
2023-03-13T08:34:30.704Z,12.10
2023-03-13T08:37:33.570Z,9.25
2023-03-13T08:40:36.387Z,9.93
2023-03-13T08:43:39.176Z,10.88
2023-03-13T08:46:43.931Z,9.10
2023-03-13T08:49:46.922Z,11.45
2023-03-13T08:55:53.827Z,9.98
2023-03-13T08:59:02.018Z,10.75
2023-03-13T09:02:05.584Z,11.73
2023-03-13T09:05:09.171Z,12.00
2023-03-13T09:08:12.452Z,10.13
2023-03-13T09:11:17.880Z,10.43
2023-03-13T09:14:20.694Z,10.60
2023-03-13T09:17:23.497Z,11.52
2023-03-13T09:20:26.338Z,13.45
2023-03-13T09:23:29.243Z,13.90
2023-03-13T09:26:32.074Z,12.95
2023-03-13T09:29:38.121Z,13.77
2023-03-13T09:32:40.920Z,12.93
2023-03-13T09:35:47.194Z,15.00
2023-03-13T09:38:58.681Z,10.32
2023-03-13T09:42:07.784Z,12.73
2023-03-13T09:45:18.085Z,9.95
2023-03-13T09:48:27.618Z,10.27
2023-03-13T09:51:41.173Z,10.60
2023-03-13T09:54:53.707Z,11.93
2023-03-13T09:58:02.354Z,12.13
2023-03-13T10:01:06.001Z,10.85
2023-03-13T10:04:35.837Z,8.85
2023-03-13T10:07:38.803Z,11.43
2023-03-13T10:10:50.237Z,10.05
2023-03-13T10:14:10.360Z,10.82
2023-03-13T10:17:26.108Z,9.18
2023-03-13T10:20:35.144Z,9.95
2023-03-13T10:23:46.525Z,11.93
2023-03-13T10:26:49.050Z,11.88
2023-03-13T10:29:52.579Z,9.60
2023-03-13T10:36:08.105Z,9.15
2023-03-13T10:39:19.766Z,13.50
2023-03-13T10:42:31.329Z,11.47
2023-03-13T10:45:37.156Z,11.45
2023-03-13T10:48:40.389Z,8.70
2023-03-13T10:51:49.098Z,10.73
2023-03-13T10:55:00.391Z,11.30
2023-03-13T10:58:05.828Z,9.32
2023-03-13T11:01:25.016Z,8.65
2023-03-13T11:04:37.549Z,9.77
2023-03-13T11:11:19.758Z,9.40
2023-03-13T11:14:26.162Z,10.85
2023-03-13T11:17:29.709Z,12.10
2023-03-13T11:20:39.340Z,12.85
2023-03-13T11:23:47.583Z,13.45
2023-03-13T11:27:05.133Z,10.65
2023-03-13T11:30:19.912Z,9.95
2023-03-13T11:33:51.069Z,12.20
2023-03-13T11:37:02.561Z,13.60
2023-03-13T11:40:25.765Z,10.50
2023-03-13T11:43:46.731Z,12.10
2023-03-13T11:47:18.037Z,10.55
2023-03-13T11:50:33.446Z,11.23
2023-03-13T11:53:42.681Z,14.82
2023-03-13T11:56:58.626Z,9.57
2023-03-13T12:00:27.722Z,12.35
2023-03-13T12:03:42.434Z,9.23
2023-03-13T12:06:52.719Z,8.35
2023-03-13T12:10:04.000Z,13.57
2023-03-13T12:13:35.984Z,11.07
2023-03-13T12:16:48.314Z,16.10
2023-03-13T12:20:01.261Z,9.97
2023-03-13T12:23:07.046Z,9.98
2023-03-13T12:26:16.333Z,10.70
2023-03-13T12:29:54.310Z,10.82
2023-03-13T12:33:17.558Z,13.07
2023-03-13T12:36:41.736Z,12.32
2023-03-13T12:40:23.887Z,8.70
2023-03-13T12:43:32.796Z,14.55
2023-03-13T12:46:43.106Z,9.65
2023-03-13T12:50:02.862Z,11.48
2023-03-13T12:53:25.183Z,6.97
2023-03-13T12:57:14.386Z,11.35
2023-03-13T13:00:22.053Z,6.60
2023-03-13T13:03:33.609Z,7.55
2023-03-13T13:07:03.205Z,8.07
2023-03-13T13:10:12.174Z,8.40
2023-03-13T13:13:14.975Z,8.25
2023-03-13T13:16:22.766Z,8.93
2023-03-13T13:19:25.490Z,12.90
2023-03-13T13:22:37.351Z,8.93
2023-03-13T13:25:40.335Z,10.55
2023-03-13T13:31:50.901Z,8.98
2023-03-13T13:34:55.730Z,13.10
2023-03-13T13:38:20.234Z,11.00
2023-03-13T13:41:28.219Z,8.18
2023-03-13T13:44:32.915Z,8.13
2023-03-13T13:47:35.838Z,5.68
2023-03-13T13:53:50.695Z,5.28
2023-03-13T13:56:59.664Z,7.03
2023-03-13T14:00:27.782Z,9.45
2023-03-13T14:03:33.227Z,7.72
2023-03-13T14:06:39.047Z,9.60
2023-03-13T14:10:06.442Z,8.80
2023-03-13T14:13:19.165Z,7.28
2023-03-13T14:19:42.674Z,6.35
2023-03-13T14:22:50.971Z,5.62
2023-03-13T14:25:53.468Z,10.70
2023-03-13T14:32:06.276Z,7.18
2023-03-13T14:35:13.659Z,7.55
2023-03-13T14:38:18.940Z,8.00
2023-03-13T14:41:30.253Z,5.85
2023-03-13T14:44:34.990Z,8.48
2023-03-13T14:47:38.259Z,6.20
2023-03-13T14:50:41.012Z,9.50
2023-03-13T14:53:58.285Z,4.47
2023-03-13T14:57:27.609Z,7.28
2023-03-13T15:00:35.853Z,7.57
2023-03-13T15:03:45.068Z,4.72
2023-03-13T15:06:48.172Z,5.05
2023-03-13T15:09:51.181Z,5.32
2023-03-13T15:12:54.296Z,8.88
2023-03-13T15:15:56.909Z,7.62
2023-03-13T15:18:59.994Z,6.60
2023-03-13T15:22:03.928Z,8.27
2023-03-13T15:25:16.065Z,4.37
2023-03-13T15:28:23.651Z,8.85
2023-03-13T15:31:28.851Z,4.93
2023-03-13T15:34:33.993Z,4.93
2023-03-13T15:37:37.348Z,3.60
2023-03-13T15:40:40.133Z,6.50
2023-03-13T15:43:43.353Z,3.95
2023-03-13T15:46:46.420Z,4.62
2023-03-13T15:49:49.717Z,3.42
2023-03-13T15:52:52.215Z,4.05
2023-03-13T15:58:58.365Z,6.65
2023-03-13T16:05:04.666Z,6.40
2023-03-13T16:08:07.461Z,4.65
2023-03-13T16:11:13.500Z,4.43
2023-03-13T16:14:16.320Z,3.50
2023-03-13T16:17:22.007Z,4.65
2023-03-13T16:20:26.522Z,3.53
2023-03-13T16:23:29.343Z,6.95
2023-03-13T16:26:32.620Z,4.25
2023-03-13T16:29:35.505Z,2.28
2023-03-13T16:32:38.281Z,7.78
2023-03-13T16:35:41.775Z,3.40
2023-03-13T16:38:45.710Z,2.60
2023-03-13T16:41:48.609Z,3.50
2023-03-13T16:44:51.449Z,8.02
2023-03-13T16:47:54.494Z,3.03
2023-03-13T16:50:57.306Z,3.30
2023-03-13T16:54:00.854Z,3.45
2023-03-13T16:57:04.511Z,3.70
2023-03-13T17:00:16.565Z,2.40
2023-03-13T17:03:19.433Z,3.95
2023-03-13T17:06:28.220Z,3.00
2023-03-13T17:09:31.164Z,2.50
2023-03-13T17:15:36.944Z,2.85
2023-03-13T17:18:40.119Z,3.12
2023-03-13T17:21:43.342Z,4.57
2023-03-13T17:24:46.287Z,4.15
2023-03-13T17:27:51.209Z,4.35
2023-03-13T17:30:54.148Z,4.15
2023-03-13T17:33:57.012Z,4.40
2023-03-13T17:37:01.500Z,5.15
2023-03-13T17:40:14.913Z,5.40
2023-03-13T17:46:24.575Z,4.80
2023-03-13T17:49:29.529Z,5.35
2023-03-13T17:52:32.482Z,4.25
2023-03-13T17:55:36.531Z,8.30
2023-03-13T17:58:39.423Z,4.53
2023-03-13T18:01:42.714Z,5.85
2023-03-13T18:04:46.256Z,5.82
2023-03-13T18:07:49.199Z,4.55
2023-03-13T18:10:52.610Z,7.68
2023-03-13T18:13:55.291Z,7.07
2023-03-13T18:16:58.382Z,5.75
2023-03-13T18:20:00.939Z,12.65
2023-03-13T18:26:36.013Z,8.70
2023-03-13T18:29:39.508Z,5.97
2023-03-13T18:32:42.476Z,6.87
2023-03-13T18:35:46.132Z,4.37
2023-03-13T18:38:49.021Z,6.90
2023-03-13T18:41:52.764Z,7.25
2023-03-13T18:47:58.631Z,7.62
2023-03-13T18:51:01.200Z,7.72
2023-03-13T18:54:04.522Z,7.53
2023-03-13T18:57:18.545Z,6.50
2023-03-13T19:00:25.473Z,6.82
2023-03-13T19:03:28.150Z,7.78
2023-03-13T19:06:34.078Z,9.32
2023-03-13T19:09:46.467Z,10.82
2023-03-13T19:12:51.351Z,10.85
2023-03-13T19:15:53.941Z,11.38
2023-03-13T19:22:01.025Z,8.80
2023-03-13T19:25:04.477Z,7.15
2023-03-13T19:28:09.847Z,8.82
2023-03-13T19:31:13.793Z,6.12
2023-03-13T19:34:20.004Z,8.50
2023-03-13T19:37:23.136Z,8.15
2023-03-13T19:40:28.744Z,8.30
2023-03-13T19:43:31.961Z,7.97
2023-03-13T19:46:43.224Z,10.32
2023-03-13T19:49:49.837Z,9.82
2023-03-13T19:52:52.404Z,9.07
2023-03-13T19:58:59.477Z,10.32
2023-03-13T20:02:06.374Z,11.50
2023-03-13T20:05:10.412Z,9.30
2023-03-13T20:08:13.456Z,11.38
2023-03-13T20:14:19.383Z,10.82
2023-03-13T20:17:22.420Z,13.82
2023-03-13T20:20:25.325Z,12.00
2023-03-13T20:23:28.540Z,11.93
2023-03-13T20:26:33.829Z,10.38
2023-03-13T20:29:36.784Z,10.70
2023-03-13T20:32:53.000Z,9.55
2023-03-13T20:36:04.644Z,9.52
2023-03-13T20:39:08.199Z,14.70
2023-03-13T20:42:11.616Z,11.10
2023-03-13T20:45:14.530Z,12.93
2023-03-13T20:48:17.968Z,12.70
2023-03-13T20:54:23.459Z,9.52
2023-03-13T20:57:26.300Z,11.27
2023-03-13T21:00:29.196Z,9.65
2023-03-13T21:03:35.430Z,8.75
2023-03-13T21:06:38.506Z,10.05
2023-03-13T21:09:41.435Z,10.38
2023-03-13T21:12:45.154Z,10.55
2023-03-13T21:15:48.107Z,9.65
2023-03-13T21:18:51.342Z,10.18
2023-03-13T21:21:54.338Z,9.43
2023-03-13T21:24:57.213Z,10.18
2023-03-13T21:28:00.721Z,8.60
2023-03-13T21:34:17.050Z,10.25
2023-03-13T21:37:20.003Z,10.50
2023-03-13T21:40:22.843Z,10.00
2023-03-13T21:43:28.188Z,10.02
2023-03-13T21:46:33.311Z,9.95
2023-03-13T21:49:36.246Z,9.77
2023-03-13T21:52:41.262Z,9.70
2023-03-13T21:55:44.422Z,8.82
2023-03-13T21:58:47.562Z,11.77
2023-03-13T22:01:50.357Z,13.48
2023-03-13T22:04:53.666Z,11.25
2023-03-13T22:07:56.776Z,11.77
2023-03-13T22:11:00.004Z,11.40
2023-03-13T22:14:02.606Z,9.85
2023-03-13T22:17:05.715Z,11.63
2023-03-13T22:20:10.704Z,9.73
2023-03-13T22:23:13.899Z,9.68
2023-03-13T22:26:16.471Z,11.57
2023-03-13T22:29:19.608Z,11.98
2023-03-13T22:32:22.155Z,12.77
2023-03-13T22:35:25.272Z,13.00
2023-03-13T22:38:28.313Z,9.23
2023-03-13T22:41:31.463Z,9.60
2023-03-13T22:44:34.242Z,11.30
2023-03-13T22:50:39.593Z,10.52
2023-03-13T22:53:45.365Z,12.63
2023-03-13T22:56:47.943Z,11.10
2023-03-13T22:59:51.770Z,11.48
2023-03-13T23:02:57.267Z,9.25
2023-03-13T23:06:00.589Z,9.00
2023-03-13T23:09:03.554Z,9.68
2023-03-13T23:12:07.004Z,9.70
2023-03-13T23:15:10.868Z,10.05
2023-03-13T23:18:13.974Z,13.00
2023-03-13T23:21:17.117Z,10.70
2023-03-13T23:24:20.292Z,9.57
2023-03-13T23:27:22.871Z,11.43
2023-03-13T23:30:26.338Z,9.48
2023-03-13T23:33:29.267Z,11.35
2023-03-13T23:36:32.346Z,10.77
2023-03-13T23:39:34.896Z,13.97
2023-03-13T23:42:38.128Z,11.45
2023-03-13T23:45:40.989Z,11.73
2023-03-13T23:48:47.628Z,11.18
2023-03-13T23:51:51.938Z,8.98
2023-03-13T23:54:55.026Z,9.13
2023-03-13T23:57:57.608Z,9.03
